All City Stadium (Denver), Colorado
Current Conditions -  °F | °C
As of 7:53 PM on Friday 19 Dec 2014 (Local Time) from KAPA Reporting Station
Broken Clouds Broken Clouds  
Wind Chill: 31°   Ceiling: 20000
Heat Index: 31°   Visibility: 10mi
Dew Point: 16°   Wind: 0mph
Humidity: 54%   Direction: NA
Pressure: 30.02"   Gusts: NA
Location:  39.69109°N, 104.9663°W
Report Text: KAPA 200253Z 00000KT 10SM BKN200 M01/M09 A3002 RMK AO2 SLP207 T10061089 53003
Loading
Personal Weather Stations






























Interactive Weather Map New forecast layout! Learn more

10-Day Weather Forecast

Advertisements
Track Severe Weather on mobile